Terminal Aerodrome Forecast
Issued by NWS Cleveland, OH

Home | Current Version | Previous Version | Graphics & Text | Print | Product List | Glossary Off
Versions: 1 2 3 4 5 6 7 8 9 10 11 12 13 14 15 16 17

371
FTUS41 KCLE 170529
TAFCAK
TAF
KCAK 170529Z 1706/1806 VRB03KT 6SM BR FEW006
     FM170900 12004KT 5SM BR SCT005 BKN250
     FM171600 18005KT P6SM SCT025 BKN200
     FM172000 20007KT P6SM VCSH BKN030 OVC120
     FM180300 22006KT 5SM BR VCSH OVC015=

USA.gov is the U.S. government's official web portal to all federal, state and local government web resources and services.